sensor_id;sensor_type;location;lat;lon;timestamp;P1;P4;P2;P0;N10;N4;N25;N1;N05;TS
67004;SPS30;53920;51.094;5.902;2022-11-23T00:01:17;3.61;3.31;2.72;1.91;15.28;15.26;15.12;14.39;11.56;0.70
67004;SPS30;53920;51.094;5.902;2022-11-23T00:03:48;3.20;2.93;2.41;1.69;13.55;13.53;13.42;12.76;10.25;0.71
67004;SPS30;53920;51.094;5.902;2022-11-23T00:06:16;3.64;3.32;2.69;1.83;14.69;14.66;14.52;13.74;10.88;0.75
67004;SPS30;53920;51.094;5.902;2022-11-23T00:08:44;3.46;3.17;2.59;1.79;14.32;14.30;14.17;13.44;10.72;0.74
67004;SPS30;53920;51.094;5.902;2022-11-23T00:11:10;4.05;3.70;3.01;2.07;16.60;16.57;16.41;15.56;12.38;0.75
67004;SPS30;53920;51.094;5.902;2022-11-23T00:13:36;3.96;3.60;2.92;1.98;15.83;15.80;15.65;14.79;11.69;0.74
67004;SPS30;53920;51.094;5.902;2022-11-23T00:16:12;3.85;3.53;2.90;2.02;16.21;16.18;16.04;15.25;12.22;0.71
67004;SPS30;53920;51.094;5.902;2022-11-23T00:18:43;3.91;3.58;2.93;2.04;16.33;16.30;16.16;15.35;12.28;0.72
67004;SPS30;53920;51.094;5.902;2022-11-23T00:21:11;3.41;3.12;2.56;1.79;14.33;14.31;14.18;13.48;10.81;0.73
67004;SPS30;53920;51.094;5.902;2022-11-23T00:23:39;3.86;3.53;2.89;2.01;16.07;16.04;15.90;15.10;12.07;0.73
67004;SPS30;53920;51.094;5.902;2022-11-23T00:26:05;3.49;3.19;2.61;1.81;14.47;14.45;14.31;13.59;10.85;0.73
67004;SPS30;53920;51.094;5.902;2022-11-23T00:28:35;3.76;3.42;2.76;1.86;14.87;14.84;14.69;13.86;10.92;0.73
67004;SPS30;53920;51.094;5.902;2022-11-23T00:31:05;3.58;3.26;2.65;1.81;14.50;14.48;14.34;13.57;10.77;0.72
67004;SPS30;53920;51.094;5.902;2022-11-23T00:33:32;3.82;3.49;2.85;1.97;15.80;15.77;15.63;14.83;11.83;0.71
67004;SPS30;53920;51.094;5.902;2022-11-23T00:36:04;3.49;3.19;2.61;1.80;14.45;14.42;14.29;13.56;10.82;0.71
67004;SPS30;53920;51.094;5.902;2022-11-23T00:38:32;3.98;3.64;2.97;2.04;16.38;16.35;16.20;15.36;12.23;0.72
67004;SPS30;53920;51.094;5.902;2022-11-23T00:41:14;3.66;3.33;2.70;1.84;14.72;14.69;14.55;13.76;10.89;0.73
67004;SPS30;53920;51.094;5.902;2022-11-23T00:43:45;3.80;3.47;2.84;1.96;15.70;15.67;15.53;14.73;11.75;0.72
67004;SPS30;53920;51.094;5.902;2022-11-23T00:48:41;3.38;3.09;2.51;1.72;13.81;13.78;13.65;12.93;10.29;0.72
67004;SPS30;53920;51.094;5.902;2022-11-23T00:51:09;3.27;3.00;2.47;1.74;13.92;13.89;13.77;13.11;10.55;0.70
67004;SPS30;53920;51.094;5.902;2022-11-23T00:53:38;2.96;2.72;2.26;1.61;12.93;12.91;12.81;12.23;9.90;0.67
67004;SPS30;53920;51.094;5.902;2022-11-23T00:56:05;3.31;3.04;2.51;1.78;14.23;14.21;14.09;13.43;10.82;0.69
67004;SPS30;53920;51.094;5.902;2022-11-23T00:58:32;3.00;2.76;2.29;1.62;13.01;12.99;12.88;12.29;9.92;0.69
67004;SPS30;53920;51.094;5.902;2022-11-23T01:00:59;2.98;2.74;2.26;1.59;12.77;12.75;12.64;12.04;9.69;0.70
67004;SPS30;53920;51.094;5.902;2022-11-23T01:03:28;2.91;2.67;2.18;1.51;12.13;12.11;12.00;11.40;9.11;0.72
67004;SPS30;53920;51.094;5.902;2022-11-23T01:06:01;3.20;2.93;2.39;1.64;13.18;13.16;13.04;12.36;9.85;0.72
67004;SPS30;53920;51.094;5.902;2022-11-23T01:08:29;2.90;2.66;2.18;1.52;12.20;12.18;12.07;11.47;9.19;0.71
67004;SPS30;53920;51.094;5.902;2022-11-23T01:11:00;2.99;2.74;2.24;1.56;12.51;12.49;12.38;11.76;9.42;0.71
67004;SPS30;53920;51.094;5.902;2022-11-23T01:13:27;3.32;3.03;2.47;1.70;13.60;13.57;13.45;12.74;10.14;0.71
67004;SPS30;53920;51.094;5.902;2022-11-23T01:15:53;3.66;3.36;2.76;1.94;15.54;15.51;15.38;14.64;11.76;0.70
67004;SPS30;53920;51.094;5.902;2022-11-23T01:18:19;2.85;2.64;2.22;1.62;13.01;12.99;12.89;12.37;10.11;0.68
67004;SPS30;53920;51.094;5.902;2022-11-23T01:20:45;3.05;2.83;2.42;1.82;14.54;14.52;14.42;13.90;11.48;0.66
67004;SPS30;53920;51.094;5.902;2022-11-23T01:23:11;2.94;2.73;2.31;1.71;13.69;13.68;13.58;13.06;10.73;0.67
67004;SPS30;53920;51.094;5.902;2022-11-23T01:25:40;3.10;2.88;2.44;1.80;14.43;14.41;14.32;13.76;11.30;0.66
67004;SPS30;53920;51.094;5.902;2022-11-23T01:28:06;3.01;2.81;2.42;1.84;14.73;14.72;14.63;14.13;11.73;0.64
67004;SPS30;53920;51.094;5.902;2022-11-23T01:30:32;2.77;2.59;2.24;1.72;13.79;13.78;13.70;13.26;11.05;0.64
67004;SPS30;53920;51.094;5.902;2022-11-23T01:33:03;3.05;2.85;2.45;1.86;14.92;14.91;14.82;14.31;11.88;0.65
67004;SPS30;53920;51.094;5.902;2022-11-23T01:35:30;2.96;2.75;2.35;1.75;14.04;14.03;13.93;13.42;11.07;0.66
67004;SPS30;53920;51.094;5.902;2022-11-23T01:37:56;2.95;2.74;2.32;1.71;13.68;13.66;13.57;13.04;10.70;0.66
67004;SPS30;53920;51.094;5.902;2022-11-23T01:40:22;3.01;2.80;2.39;1.79;14.32;14.30;14.20;13.68;11.30;0.66
67004;SPS30;53920;51.094;5.902;2022-11-23T01:42:54;2.95;2.74;2.32;1.71;13.70;13.68;13.59;13.06;10.72;0.68
67004;SPS30;53920;51.094;5.902;2022-11-23T01:48:03;3.44;3.18;2.67;1.95;15.61;15.59;15.47;14.83;12.11;0.68
67004;SPS30;53920;51.094;5.902;2022-11-23T01:50:42;3.06;2.82;2.34;1.67;13.38;13.36;13.25;12.65;10.24;0.68
67004;SPS30;53920;51.094;5.902;2022-11-23T01:53:13;3.24;2.99;2.50;1.80;14.44;14.42;14.31;13.69;11.13;0.68
67004;SPS30;53920;51.094;5.902;2022-11-23T01:55:40;3.49;3.21;2.66;1.90;15.19;15.16;15.04;14.35;11.60;0.70
67004;SPS30;53920;51.094;5.902;2022-11-23T01:58:11;3.50;3.22;2.65;1.86;14.91;14.88;14.76;14.05;11.29;0.72
67004;SPS30;53920;51.094;5.902;2022-11-23T02:00:42;3.10;2.85;2.38;1.70;13.63;13.61;13.51;12.90;10.46;0.71
67004;SPS30;53920;51.094;5.902;2022-11-23T02:03:09;3.94;3.61;2.97;2.07;16.62;16.59;16.44;15.64;12.54;0.72
67004;SPS30;53920;51.094;5.902;2022-11-23T02:05:43;3.43;3.15;2.60;1.84;14.76;14.74;14.62;13.93;11.24;0.71
67004;SPS30;53920;51.094;5.902;2022-11-23T02:08:14;3.91;3.59;2.95;2.06;16.53;16.51;16.36;15.56;12.49;0.71
67004;SPS30;53920;51.094;5.902;2022-11-23T02:10:43;3.98;3.64;2.98;2.07;16.57;16.54;16.39;15.56;12.44;0.71
67004;SPS30;53920;51.094;5.902;2022-11-23T02:13:10;3.64;3.33;2.73;1.90;15.19;15.16;15.03;14.28;11.42;0.70
67004;SPS30;53920;51.094;5.902;2022-11-23T02:15:38;4.03;3.67;2.97;2.01;16.15;16.12;15.96;15.09;11.93;0.71
67004;SPS30;53920;51.094;5.902;2022-11-23T02:18:11;4.42;4.02;3.24;2.17;17.40;17.37;17.19;16.22;12.77;0.73
67004;SPS30;53920;51.094;5.902;2022-11-23T02:20:43;4.15;3.77;3.03;2.02;16.18;16.14;15.98;15.05;11.81;0.74
67004;SPS30;53920;51.094;5.902;2022-11-23T02:29:26;4.64;4.19;3.32;2.15;17.23;17.19;16.99;15.91;12.29;0.77
67004;SPS30;53920;51.094;5.902;2022-11-23T02:31:54;4.49;4.07;3.25;2.13;17.11;17.08;16.89;15.87;12.36;0.74
67004;SPS30;53920;51.094;5.902;2022-11-23T02:34:23;4.85;4.38;3.47;2.23;17.89;17.85;17.65;16.50;12.73;0.76
67004;SPS30;53920;51.094;5.902;2022-11-23T02:36:50;4.85;4.37;3.44;2.20;17.63;17.59;17.38;16.22;12.46;0.76
67004;SPS30;53920;51.094;5.902;2022-11-23T02:39:24;5.23;4.72;3.71;2.37;19.00;18.95;18.73;17.48;13.41;0.76
67004;SPS30;53920;51.094;5.902;2022-11-23T02:42:07;4.70;4.27;3.41;2.25;18.07;18.04;17.85;16.78;13.11;0.75
67004;SPS30;53920;51.094;5.902;2022-11-23T02:47:12;4.89;4.40;3.44;2.16;17.30;17.26;17.04;15.85;12.05;0.79
67004;SPS30;53920;51.094;5.902;2022-11-23T02:49:44;5.13;4.65;3.72;2.45;19.68;19.64;19.43;18.26;14.26;0.75
67004;SPS30;53920;51.094;5.902;2022-11-23T02:52:13;5.11;4.63;3.68;2.41;19.30;19.25;19.04;17.86;13.88;0.75
67004;SPS30;53920;51.094;5.902;2022-11-23T02:54:40;5.36;4.81;3.74;2.32;18.58;18.54;18.30;16.97;12.82;0.80
67004;SPS30;53920;51.094;5.902;2022-11-23T02:57:06;5.43;4.89;3.82;2.39;19.18;19.13;18.89;17.56;13.35;0.78
67004;SPS30;53920;51.094;5.902;2022-11-23T02:59:33;5.14;4.64;3.66;2.34;18.76;18.72;18.50;17.28;13.28;0.78
67004;SPS30;53920;51.094;5.902;2022-11-23T03:02:00;5.35;4.80;3.74;2.32;18.63;18.58;18.35;17.02;12.88;0.80
67004;SPS30;53920;51.094;5.902;2022-11-23T03:04:28;5.07;4.56;3.56;2.23;17.89;17.85;17.63;16.39;12.46;0.80
67004;SPS30;53920;51.094;5.902;2022-11-23T03:06:55;4.74;4.28;3.39;2.19;17.56;17.53;17.33;16.22;12.53;0.79
67004;SPS30;53920;51.094;5.902;2022-11-23T03:09:21;5.26;4.76;3.77;2.44;19.53;19.49;19.27;18.03;13.94;0.79
67004;SPS30;53920;51.094;5.902;2022-11-23T03:11:48;4.64;4.19;3.29;2.10;16.84;16.80;16.60;15.49;11.89;0.79
67004;SPS30;53920;51.094;5.902;2022-11-23T03:14:14;5.02;4.53;3.57;2.28;18.25;18.21;18.00;16.80;12.89;0.79
67004;SPS30;53920;51.094;5.902;2022-11-23T03:16:56;5.32;4.78;3.74;2.34;18.77;18.73;18.49;17.19;13.07;0.80
67004;SPS30;53920;51.094;5.902;2022-11-23T03:19:23;6.07;5.43;4.20;2.57;20.63;20.58;20.31;18.78;14.08;0.81
67004;SPS30;53920;51.094;5.902;2022-11-23T03:21:50;5.78;5.18;4.00;2.45;19.67;19.62;19.36;17.90;13.44;0.80
67004;SPS30;53920;51.094;5.902;2022-11-23T03:24:16;6.17;5.55;4.33;2.71;21.77;21.71;21.44;19.93;15.14;0.77
67004;SPS30;53920;51.094;5.902;2022-11-23T03:26:43;5.97;5.36;4.19;2.61;20.98;20.93;20.66;19.20;14.57;0.78
67004;SPS30;53920;51.094;5.902;2022-11-23T03:29:13;5.48;4.93;3.87;2.45;19.64;19.60;19.36;18.04;13.79;0.78
67004;SPS30;53920;51.094;5.902;2022-11-23T03:31:41;6.11;5.50;4.31;2.71;21.78;21.73;21.46;19.98;15.24;0.78
67004;SPS30;53920;51.094;5.902;2022-11-23T03:34:10;5.86;5.31;4.22;2.75;22.05;22.01;21.76;20.41;15.84;0.76
67004;SPS30;53920;51.094;5.902;2022-11-23T03:36:38;5.72;5.17;4.08;2.62;21.02;20.97;20.73;19.38;14.93;0.77
67004;SPS30;53920;51.094;5.902;2022-11-23T03:39:04;5.98;5.39;4.24;2.70;21.62;21.57;21.31;19.88;15.24;0.79
67004;SPS30;53920;51.094;5.902;2022-11-23T03:41:56;5.58;5.03;3.94;2.50;20.02;19.97;19.73;18.38;14.05;0.79
67004;SPS30;53920;51.094;5.902;2022-11-23T03:44:28;6.47;5.80;4.49;2.75;22.09;22.03;21.74;20.11;15.11;0.80
67004;SPS30;53920;51.094;5.902;2022-11-23T03:46:54;5.99;5.38;4.18;2.58;20.70;20.65;20.38;18.88;14.24;0.78
67004;SPS30;53920;51.094;5.902;2022-11-23T03:49:20;6.11;5.49;4.29;2.69;21.57;21.52;21.25;19.75;15.01;0.77
67004;SPS30;53920;51.094;5.902;2022-11-23T03:51:46;6.36;5.70;4.42;2.73;21.87;21.82;21.53;19.94;15.02;0.79
67004;SPS30;53920;51.094;5.902;2022-11-23T03:54:13;6.22;5.58;4.33;2.66;21.36;21.30;21.02;19.46;14.65;0.79
67004;SPS30;53920;51.094;5.902;2022-11-23T03:56:39;6.04;5.43;4.25;2.67;21.42;21.37;21.11;19.63;14.95;0.78
67004;SPS30;53920;51.094;5.902;2022-11-23T03:59:04;6.56;5.88;4.56;2.80;22.48;22.43;22.13;20.49;15.41;0.80
67004;SPS30;53920;51.094;5.902;2022-11-23T04:01:31;5.51;4.94;3.84;2.38;19.11;19.06;18.82;17.45;13.18;0.80
67004;SPS30;53920;51.094;5.902;2022-11-23T04:04:01;5.94;5.35;4.19;2.65;21.23;21.18;20.92;19.49;14.88;0.78
67004;SPS30;53920;51.094;5.902;2022-11-23T04:06:43;6.25;5.63;4.42;2.80;22.50;22.45;22.18;20.67;15.82;0.78
67004;SPS30;53920;51.094;5.902;2022-11-23T04:09:17;6.06;5.42;4.16;2.50;20.10;20.05;19.77;18.21;13.53;0.82
67004;SPS30;53920;51.094;5.902;2022-11-23T04:12:01;5.73;5.17;4.06;2.58;20.70;20.65;20.41;19.03;14.58;0.76
67004;SPS30;53920;51.094;5.902;2022-11-23T04:14:28;5.57;5.03;3.97;2.54;20.37;20.32;20.08;18.76;14.43;0.76
67004;SPS30;53920;51.094;5.902;2022-11-23T04:16:54;5.97;5.37;4.20;2.64;21.21;21.16;20.90;19.45;14.82;0.78
67004;SPS30;53920;51.094;5.902;2022-11-23T04:19:20;5.24;4.69;3.62;2.19;17.61;17.57;17.33;15.99;11.94;0.80
67004;SPS30;53920;51.094;5.902;2022-11-23T04:21:46;5.63;5.04;3.90;2.38;19.10;19.05;18.80;17.37;13.02;0.80
67004;SPS30;53920;51.094;5.902;2022-11-23T04:24:13;5.70;5.13;4.02;2.53;20.32;20.27;20.02;18.63;14.21;0.77
67004;SPS30;53920;51.094;5.902;2022-11-23T04:26:40;5.14;4.64;3.66;2.35;18.84;18.80;18.58;17.36;13.37;0.76
67004;SPS30;53920;51.094;5.902;2022-11-23T04:29:08;6.16;5.54;4.33;2.72;21.82;21.77;21.50;20.00;15.22;0.78
67004;SPS30;53920;51.094;5.902;2022-11-23T04:31:37;5.37;4.85;3.86;2.51;20.13;20.09;19.86;18.62;14.44;0.75
67004;SPS30;53920;51.094;5.902;2022-11-23T04:34:16;5.16;4.65;3.65;2.31;18.56;18.52;18.30;17.05;13.04;0.78
67004;SPS30;53920;51.094;5.902;2022-11-23T04:36:42;4.93;4.42;3.42;2.08;16.73;16.69;16.47;15.22;11.40;0.81
67004;SPS30;53920;51.094;5.902;2022-11-23T04:39:09;5.74;5.14;3.98;2.43;19.53;19.48;19.22;17.77;13.34;0.79
67004;SPS30;53920;51.094;5.902;2022-11-23T04:41:55;5.22;4.67;3.61;2.20;17.65;17.60;17.37;16.04;12.01;0.78
67004;SPS30;53920;51.094;5.902;2022-11-23T04:44:21;6.21;5.54;4.25;2.55;20.49;20.44;20.15;18.55;13.76;0.79
67004;SPS30;53920;51.094;5.902;2022-11-23T04:46:52;5.31;4.76;3.68;2.26;18.12;18.07;17.83;16.49;12.39;0.79
67004;SPS30;53920;51.094;5.902;2022-11-23T04:49:19;5.33;4.78;3.71;2.29;18.39;18.35;18.11;16.78;12.66;0.80
67004;SPS30;53920;51.094;5.902;2022-11-23T04:51:45;5.43;4.87;3.78;2.33;18.69;18.64;18.40;17.04;12.83;0.80
67004;SPS30;53920;51.094;5.902;2022-11-23T04:54:13;4.82;4.37;3.48;2.28;18.27;18.23;18.03;16.92;13.16;0.74
67004;SPS30;53920;51.094;5.902;2022-11-23T04:56:47;4.68;4.23;3.35;2.17;17.41;17.37;17.18;16.08;12.44;0.75
67004;SPS30;53920;51.094;5.902;2022-11-23T04:59:13;5.28;4.77;3.77;2.42;19.39;19.35;19.13;17.88;13.77;0.76
67004;SPS30;53920;51.094;5.902;2022-11-23T05:01:39;4.99;4.49;3.51;2.20;17.64;17.60;17.38;16.16;12.29;0.79
67004;SPS30;53920;51.094;5.902;2022-11-23T05:04:27;5.36;4.82;3.76;2.34;18.81;18.76;18.53;17.21;13.06;0.80
67004;SPS30;53920;51.094;5.902;2022-11-23T05:06:53;5.72;5.11;3.93;2.37;19.03;18.99;18.72;17.25;12.84;0.80
67004;SPS30;53920;51.094;5.902;2022-11-23T05:09:19;5.49;4.93;3.85;2.41;19.33;19.28;19.04;17.70;13.44;0.77
67004;SPS30;53920;51.094;5.902;2022-11-23T05:12:15;5.71;5.11;3.93;2.38;19.12;19.08;18.81;17.36;12.95;0.80
67004;SPS30;53920;51.094;5.902;2022-11-23T05:14:41;5.70;5.09;3.90;2.33;18.71;18.66;18.39;16.91;12.51;0.81
67004;SPS30;53920;51.094;5.902;2022-11-23T05:17:09;5.74;5.14;3.97;2.42;19.44;19.39;19.13;17.67;13.24;0.79
67004;SPS30;53920;51.094;5.902;2022-11-23T05:19:36;5.81;5.19;3.98;2.39;19.15;19.10;18.83;17.33;12.84;0.83
67004;SPS30;53920;51.094;5.902;2022-11-23T05:22:03;5.72;5.11;3.90;2.32;18.64;18.59;18.32;16.83;12.41;0.83
67004;SPS30;53920;51.094;5.902;2022-11-23T05:24:32;5.69;5.09;3.91;2.36;18.92;18.87;18.61;17.15;12.75;0.81
67004;SPS30;53920;51.094;5.902;2022-11-23T05:27:11;5.15;4.64;3.64;2.30;18.49;18.45;18.22;16.98;12.98;0.79
67004;SPS30;53920;51.094;5.902;2022-11-23T05:29:38;5.45;4.90;3.83;2.40;19.25;19.21;18.97;17.63;13.41;0.82
67004;SPS30;53920;51.094;5.902;2022-11-23T05:32:05;5.44;4.90;3.83;2.40;19.24;19.19;18.95;17.62;13.40;0.82
67004;SPS30;53920;51.094;5.902;2022-11-23T05:34:31;4.86;4.37;3.42;2.15;17.21;17.17;16.96;15.77;12.00;0.82
67004;SPS30;53920;51.094;5.902;2022-11-23T05:36:58;5.25;4.70;3.63;2.21;17.72;17.68;17.44;16.11;12.05;0.83
67004;SPS30;53920;51.094;5.902;2022-11-23T05:39:24;6.07;5.40;4.08;2.36;18.94;18.89;18.59;16.96;12.29;0.86
67004;SPS30;53920;51.094;5.902;2022-11-23T05:41:52;5.50;4.91;3.77;2.27;18.23;18.19;17.93;16.52;12.27;0.82
67004;SPS30;53920;51.094;5.902;2022-11-23T05:44:32;5.83;5.19;3.95;2.32;18.63;18.58;18.30;16.76;12.27;0.84
67004;SPS30;53920;51.094;5.902;2022-11-23T05:46:58;5.50;4.89;3.69;2.12;17.02;16.97;16.70;15.21;10.98;0.86
67004;SPS30;53920;51.094;5.902;2022-11-23T05:49:26;5.70;5.06;3.82;2.21;17.73;17.68;17.40;15.87;11.49;0.85
67004;SPS30;53920;51.094;5.902;2022-11-23T05:51:53;6.13;5.46;4.16;2.45;19.67;19.61;19.32;17.71;12.98;0.84
67004;SPS30;53920;51.094;5.902;2022-11-23T05:54:19;5.38;4.80;3.65;2.15;17.26;17.21;16.96;15.54;11.39;0.86
67004;SPS30;53920;51.094;5.902;2022-11-23T05:57:00;6.12;5.44;4.10;2.36;18.97;18.91;18.61;16.96;12.25;0.86
67004;SPS30;53920;51.094;5.902;2022-11-23T05:59:38;6.38;5.69;4.34;2.56;20.54;20.49;20.19;18.51;13.59;0.83
67004;SPS30;53920;51.094;5.902;2022-11-23T06:02:05;5.71;5.11;3.94;2.39;19.21;19.16;18.90;17.44;13.03;0.81
67004;SPS30;53920;51.094;5.902;2022-11-23T06:04:34;5.29;4.75;3.69;2.29;18.38;18.34;18.10;16.79;12.69;0.80
67004;SPS30;53920;51.094;5.902;2022-11-23T06:06:59;5.71;5.10;3.90;2.32;18.62;18.57;18.30;16.81;12.40;0.82
67004;SPS30;53920;51.094;5.902;2022-11-23T06:09:29;5.39;4.80;3.65;2.15;17.23;17.18;16.93;15.50;11.35;0.82
67004;SPS30;53920;51.094;5.902;2022-11-23T06:12:02;5.47;4.90;3.80;2.33;18.70;18.65;18.40;17.03;12.80;0.80
67004;SPS30;53920;51.094;5.902;2022-11-23T06:14:29;5.20;4.66;3.61;2.21;17.76;17.72;17.48;16.18;12.15;0.80
67004;SPS30;53920;51.094;5.902;2022-11-23T06:16:55;6.03;5.36;4.06;2.35;18.87;18.81;18.52;16.91;12.27;0.83
67004;SPS30;53920;51.094;5.902;2022-11-23T06:19:31;4.94;4.38;3.29;1.86;14.95;14.90;14.66;13.30;9.51;0.85
67004;SPS30;53920;51.094;5.902;2022-11-23T06:21:57;5.91;5.26;3.98;2.30;18.51;18.46;18.18;16.59;12.04;0.83
67004;SPS30;53920;51.094;5.902;2022-11-23T06:24:25;6.55;5.81;4.38;2.51;20.13;20.07;19.75;17.97;12.94;0.86
67004;SPS30;53920;51.094;5.902;2022-11-23T06:27:11;5.00;4.45;3.37;1.96;15.73;15.69;15.45;14.11;10.27;0.84
67004;SPS30;53920;51.094;5.902;2022-11-23T06:29:41;5.35;4.81;3.74;2.31;18.56;18.51;18.28;16.94;12.80;0.78
67004;SPS30;53920;51.094;5.902;2022-11-23T06:32:09;5.23;4.69;3.65;2.25;18.08;18.04;17.81;16.50;12.45;0.79
67004;SPS30;53920;51.094;5.902;2022-11-23T06:34:35;5.20;4.66;3.59;2.19;17.55;17.50;17.27;15.94;11.92;0.81
67004;SPS30;53920;51.094;5.902;2022-11-23T06:37:01;5.68;5.05;3.82;2.22;17.80;17.75;17.47;15.95;11.58;0.84
67004;SPS30;53920;51.094;5.902;2022-11-23T06:39:27;6.07;5.40;4.07;2.35;18.85;18.79;18.50;16.86;12.19;0.85
67004;SPS30;53920;51.094;5.902;2022-11-23T06:41:53;5.67;5.05;3.85;2.27;18.22;18.17;17.90;16.41;12.04;0.84
67004;SPS30;53920;51.094;5.902;2022-11-23T06:44:20;6.05;5.38;4.05;2.32;18.67;18.61;18.32;16.68;12.02;0.86
67004;SPS30;53920;51.094;5.902;2022-11-23T06:46:46;5.88;5.23;3.97;2.31;18.53;18.47;18.19;16.62;12.09;0.85
67004;SPS30;53920;51.094;5.902;2022-11-23T06:49:12;5.19;4.63;3.54;2.11;16.95;16.90;16.66;15.31;11.30;0.83
67004;SPS30;53920;51.094;5.902;2022-11-23T06:51:39;5.26;4.68;3.56;2.09;16.78;16.73;16.49;15.09;11.04;0.83
67004;SPS30;53920;51.094;5.902;2022-11-23T06:54:05;4.54;4.05;3.09;1.83;14.66;14.62;14.41;13.21;9.71;0.82
67004;SPS30;53920;51.094;5.902;2022-11-23T06:56:31;5.40;4.80;3.64;2.11;16.98;16.93;16.67;15.22;11.07;0.84
67004;SPS30;53920;51.094;5.902;2022-11-23T06:58:57;5.34;4.74;3.58;2.05;16.48;16.43;16.17;14.72;10.61;0.86
67004;SPS30;53920;51.094;5.902;2022-11-23T07:01:25;5.36;4.78;3.63;2.12;17.05;17.00;16.75;15.32;11.19;0.84
67004;SPS30;53920;51.094;5.902;2022-11-23T07:04:00;5.00;4.46;3.41;2.02;16.21;16.16;15.93;14.61;10.76;0.82
67004;SPS30;53920;51.094;5.902;2022-11-23T07:06:31;4.73;4.23;3.24;1.94;15.59;15.55;15.33;14.11;10.45;0.82
67004;SPS30;53920;51.094;5.902;2022-11-23T07:09:01;5.57;4.96;3.78;2.22;17.86;17.81;17.55;16.08;11.79;0.83
67004;SPS30;53920;51.094;5.902;2022-11-23T07:11:50;5.18;4.62;3.51;2.05;16.48;16.44;16.19;14.82;10.82;0.83
67004;SPS30;53920;51.094;5.902;2022-11-23T07:14:17;4.80;4.29;3.28;1.96;15.77;15.72;15.50;14.26;10.55;0.81
67004;SPS30;53920;51.094;5.902;2022-11-23T07:16:46;4.70;4.19;3.18;1.86;14.94;14.90;14.68;13.43;9.81;0.83
67004;SPS30;53920;51.094;5.902;2022-11-23T07:19:13;5.18;4.60;3.45;1.96;15.74;15.70;15.44;14.02;10.04;0.86
67004;SPS30;53920;51.094;5.902;2022-11-23T07:21:40;4.71;4.18;3.16;1.82;14.64;14.59;14.37;13.10;9.48;0.86
67004;SPS30;53920;51.094;5.902;2022-11-23T07:24:06;5.39;4.79;3.61;2.08;16.71;16.66;16.40;14.94;10.80;0.86
67004;SPS30;53920;51.094;5.902;2022-11-23T07:26:33;5.19;4.62;3.51;2.04;16.40;16.35;16.10;14.72;10.72;0.85
67004;SPS30;53920;51.094;5.902;2022-11-23T07:28:59;4.47;3.99;3.04;1.80;14.47;14.43;14.22;13.05;9.60;0.82
67004;SPS30;53920;51.094;5.902;2022-11-23T07:31:25;4.46;3.99;3.07;1.85;14.87;14.83;14.63;13.48;10.03;0.81
67004;SPS30;53920;51.094;5.902;2022-11-23T07:33:52;4.51;4.04;3.11;1.88;15.07;15.03;14.82;13.67;10.18;0.81
67004;SPS30;53920;51.094;5.902;2022-11-23T07:36:17;4.62;4.12;3.13;1.84;14.80;14.76;14.54;13.32;9.76;0.83
67004;SPS30;53920;51.094;5.902;2022-11-23T07:38:44;4.43;3.95;3.00;1.77;14.21;14.17;13.96;12.80;9.38;0.82
67004;SPS30;53920;51.094;5.902;2022-11-23T07:41:13;4.36;3.91;3.04;1.87;15.02;14.99;14.79;13.70;10.32;0.78
67004;SPS30;53920;51.094;5.902;2022-11-23T07:43:54;4.52;4.05;3.15;1.94;15.61;15.57;15.37;14.24;10.75;0.78
67004;SPS30;53920;51.094;5.902;2022-11-23T07:46:20;5.30;4.79;3.79;2.45;19.69;19.64;19.42;18.18;14.06;0.74
67004;SPS30;53920;51.094;5.902;2022-11-23T07:48:46;4.28;3.89;3.14;2.12;16.97;16.93;16.77;15.83;12.48;0.73
67004;SPS30;53920;51.094;5.902;2022-11-23T07:51:12;4.21;3.83;3.10;2.10;16.82;16.78;16.62;15.70;12.41;0.74
67004;SPS30;53920;51.094;5.902;2022-11-23T07:53:39;4.42;4.03;3.27;2.22;17.80;17.77;17.60;16.64;13.18;0.73
67004;SPS30;53920;51.094;5.902;2022-11-23T07:56:05;3.69;3.37;2.73;1.85;14.83;14.80;14.66;13.85;10.96;0.73
67004;SPS30;53920;51.094;5.902;2022-11-23T07:58:31;3.76;3.42;2.74;1.83;14.63;14.61;14.45;13.61;10.67;0.76
67004;SPS30;53920;51.094;5.902;2022-11-23T08:00:57;3.87;3.51;2.82;1.88;15.04;15.02;14.86;13.99;10.97;0.75
67004;SPS30;53920;51.094;5.902;2022-11-23T08:03:23;4.11;3.73;2.98;1.96;15.72;15.69;15.52;14.59;11.38;0.75
67004;SPS30;53920;51.094;5.902;2022-11-23T08:05:50;4.72;4.26;3.36;2.15;17.22;17.18;16.98;15.86;12.19;0.78
67004;SPS30;53920;51.094;5.902;2022-11-23T08:08:16;4.64;4.19;3.31;2.12;16.99;16.95;16.75;15.65;12.04;0.78
67004;SPS30;53920;51.094;5.902;2022-11-23T08:10:42;4.47;4.03;3.18;2.04;16.35;16.31;16.12;15.06;11.59;0.78
67004;SPS30;53920;51.094;5.902;2022-11-23T08:13:08;4.20;3.79;2.98;1.90;15.26;15.23;15.05;14.04;10.78;0.78
67004;SPS30;53920;51.094;5.902;2022-11-23T08:15:34;4.27;3.85;3.03;1.93;15.46;15.42;15.24;14.22;10.90;0.77
67004;SPS30;53920;51.094;5.902;2022-11-23T08:18:01;4.71;4.24;3.32;2.09;16.78;16.74;16.54;15.39;11.73;0.78
67004;SPS30;53920;51.094;5.902;2022-11-23T08:20:29;4.92;4.41;3.44;2.13;17.12;17.08;16.86;15.64;11.84;0.78
67004;SPS30;53920;51.094;5.902;2022-11-23T08:22:55;4.83;4.35;3.42;2.18;17.47;17.44;17.23;16.07;12.32;0.77
67004;SPS30;53920;51.094;5.902;2022-11-23T08:25:23;4.36;3.93;3.09;1.96;15.72;15.68;15.49;14.44;11.06;0.79
67004;SPS30;53920;51.094;5.902;2022-11-23T08:27:57;4.44;3.99;3.10;1.93;15.46;15.43;15.23;14.13;10.69;0.81
67004;SPS30;53920;51.094;5.902;2022-11-23T08:30:25;4.40;3.97;3.12;1.99;15.96;15.92;15.73;14.68;11.25;0.78
67004;SPS30;53920;51.094;5.902;2022-11-23T08:32:52;4.73;4.25;3.31;2.06;16.54;16.50;16.29;15.12;11.46;0.80
67004;SPS30;53920;51.094;5.902;2022-11-23T08:35:18;4.51;4.05;3.15;1.95;15.67;15.63;15.43;14.32;10.82;0.80
67004;SPS30;53920;51.094;5.902;2022-11-23T08:37:45;4.79;4.30;3.34;2.06;16.54;16.50;16.29;15.09;11.38;0.80
67004;SPS30;53920;51.094;5.902;2022-11-23T08:40:11;4.40;3.96;3.09;1.93;15.45;15.42;15.22;14.14;10.72;0.78
67004;SPS30;53920;51.094;5.902;2022-11-23T08:42:38;4.78;4.29;3.34;2.08;16.69;16.65;16.44;15.26;11.56;0.79
67004;SPS30;53920;51.094;5.902;2022-11-23T08:45:04;4.07;3.64;2.81;1.71;13.73;13.70;13.51;12.48;9.34;0.81
67004;SPS30;53920;51.094;5.902;2022-11-23T08:47:33;5.07;4.54;3.50;2.12;17.02;16.97;16.74;15.45;11.53;0.82
67004;SPS30;53920;51.094;5.902;2022-11-23T08:49:59;5.09;4.55;3.49;2.10;16.86;16.81;16.58;15.27;11.34;0.82
67004;SPS30;53920;51.094;5.902;2022-11-23T08:52:25;4.28;3.82;2.92;1.74;13.97;13.93;13.73;12.62;9.31;0.83
67004;SPS30;53920;51.094;5.902;2022-11-23T08:54:51;4.73;4.23;3.25;1.97;15.78;15.74;15.53;14.32;10.67;0.81
67004;SPS30;53920;51.094;5.902;2022-11-23T08:57:17;5.34;4.79;3.71;2.28;18.33;18.29;18.05;16.71;12.57;0.79
67004;SPS30;53920;51.094;5.902;2022-11-23T08:59:43;5.48;4.95;3.91;2.51;20.16;20.12;19.89;18.60;14.34;0.76
67004;SPS30;53920;51.094;5.902;2022-11-23T09:02:11;4.88;4.43;3.53;2.32;18.57;18.53;18.33;17.21;13.40;0.75
67004;SPS30;53920;51.094;5.902;2022-11-23T09:04:41;4.64;4.19;3.29;2.10;16.83;16.79;16.59;15.48;11.87;0.77
67004;SPS30;53920;51.094;5.902;2022-11-23T09:07:07;4.58;4.09;3.14;1.88;15.06;15.02;14.81;13.63;10.09;0.81
67004;SPS30;53920;51.094;5.902;2022-11-23T09:09:33;4.70;4.19;3.20;1.90;15.22;15.18;14.96;13.73;10.11;0.84
67004;SPS30;53920;51.094;5.902;2022-11-23T09:12:00;4.59;4.10;3.14;1.88;15.09;15.05;14.83;13.64;10.10;0.83
67004;SPS30;53920;51.094;5.902;2022-11-23T09:14:25;4.66;4.17;3.22;1.96;15.72;15.68;15.47;14.29;10.68;0.81
67004;SPS30;53920;51.094;5.902;2022-11-23T09:16:52;4.69;4.19;3.19;1.89;15.14;15.10;14.88;13.65;10.03;0.85
67004;SPS30;53920;51.094;5.902;2022-11-23T09:19:19;4.37;3.91;3.01;1.82;14.57;14.54;14.34;13.21;9.84;0.83
67004;SPS30;53920;51.094;5.902;2022-11-23T09:21:47;7.11;6.47;5.21;3.49;27.94;27.89;27.61;26.03;20.47;0.77
67004;SPS30;53920;51.094;5.902;2022-11-23T09:24:13;4.64;4.33;3.71;2.81;22.51;22.48;22.34;21.57;17.88;0.69
67004;SPS30;53920;51.094;5.902;2022-11-23T09:26:39;3.67;3.39;2.85;2.07;16.55;16.52;16.40;15.71;12.81;0.70
67004;SPS30;53920;51.094;5.902;2022-11-23T09:29:05;5.33;4.91;4.08;2.92;23.38;23.34;23.16;22.12;17.92;0.72
67004;SPS30;53920;51.094;5.902;2022-11-23T09:31:34;6.75;6.34;5.54;4.33;34.65;34.61;34.43;33.41;28.01;0.65